Time;durP1;ratioP1;P1;durP2;ratioP2;P2;SDS_P1;SDS_P2;PMS_P1;PMS_P2;Temp;Humidity;BMP_temperature;BMP_pressure;BME280_temperature;BME280_humidity;BME280_pressure;Samples;Min_cycle;Max_cycle;Signal;HPM_P1;HPM_P2
2022/06/27 00:00:38;;;;;;;;;;;538.50;2406.40;;;;;;5073063;28;19962;-62
2022/06/27 00:03:04;;;;;;;;;;;538.40;2406.40;;;;;;5073155;28;19947;-60
2022/06/27 00:05:29;;;;;;;;;;;538.40;2406.40;;;;;;5073229;28;19904;-59
2022/06/27 00:07:55;;;;;;;;;;;538.30;2406.40;;;;;;5072991;28;19944;-63
2022/06/27 00:10:20;;;;;;;;;;;538.10;2406.40;;;;;;5072953;28;19962;-59
2022/06/27 00:12:46;;;;;;;;;;;538.00;2406.40;;;;;;5072659;28;19904;-60
2022/06/27 00:15:12;;;;;;;;;;;538.00;2406.40;;;;;;5072814;28;19908;-60
2022/06/27 00:17:39;;;;;;;;;;;538.30;2406.40;;;;;;5072717;28;20412;-59
2022/06/27 00:20:05;;;;;;;;;;;538.20;2406.40;;;;;;5072729;28;19989;-60
2022/06/27 00:22:31;;;;;;;;;;;538.20;2406.40;;;;;;5072750;28;20354;-61
2022/06/27 00:24:56;;;;;;;;;;;538.10;2406.40;;;;;;5072463;28;19905;-60
2022/06/27 00:27:22;;;;;;;;;;;538.30;2406.40;;;;;;5072464;28;19955;-62
2022/06/27 00:29:47;;;;;;;;;;;538.30;2406.40;;;;;;5072614;28;19912;-62
2022/06/27 00:32:13;;;;;;;;;;;538.30;2406.40;;;;;;5072443;28;19928;-61
2022/06/27 00:34:39;;;;;;;;;;;538.30;2406.40;;;;;;5072626;28;19904;-62
2022/06/27 00:37:04;;;;;;;;;;;538.30;2406.40;;;;;;5072240;28;19927;-58
2022/06/27 00:39:30;;;;;;;;;;;538.40;2406.40;;;;;;5071116;28;20409;-62
2022/06/27 00:41:56;;;;;;;;;;;538.50;2406.40;;;;;;5072198;28;19904;-59
2022/06/27 00:44:41;;;;;;;;;;;538.30;2406.40;;;;;;5072197;28;19938;-62
2022/06/27 00:47:08;;;;;;;;;;;538.30;2406.40;;;;;;5072161;28;19904;-59
2022/06/27 00:49:34;;;;;;;;;;;538.30;2406.40;;;;;;5071958;28;19908;-60
2022/06/27 00:52:02;;;;;;;;;;;538.30;2406.40;;;;;;5072135;28;19911;-60
2022/06/27 00:54:27;;;;;;;;;;;538.30;2406.40;;;;;;5071681;28;19955;-60
2022/06/27 00:56:53;;;;;;;;;;;538.20;2406.40;;;;;;5071815;28;19950;-62
2022/06/27 00:59:19;;;;;;;;;;;538.00;2406.40;;;;;;5071927;28;20013;-62
2022/06/27 01:01:44;;;;;;;;;;;538.00;2406.40;;;;;;5071536;28;19904;-61
2022/06/27 01:04:10;;;;;;;;;;;538.00;2406.40;;;;;;5072068;28;19910;-63
2022/06/27 01:06:36;;;;;;;;;;;538.00;2406.40;;;;;;5071763;28;20343;-59
2022/06/27 01:09:02;;;;;;;;;;;538.00;2406.40;;;;;;5071503;28;20350;-61
2022/06/27 01:11:28;;;;;;;;;;;538.00;2406.40;;;;;;5071735;28;19904;-59
2022/06/27 01:13:53;;;;;;;;;;;538.00;2406.40;;;;;;5071581;28;19934;-60
2022/06/27 01:16:19;;;;;;;;;;;538.00;2406.40;;;;;;5071593;28;20381;-59
2022/06/27 01:18:44;;;;;;;;;;;538.00;2406.40;;;;;;5071475;28;20274;-58
2022/06/27 01:21:18;;;;;;;;;;;537.90;2406.40;;;;;;5071578;28;19904;-59
2022/06/27 01:23:44;;;;;;;;;;;537.90;2406.40;;;;;;5071079;28;19955;-59
2022/06/27 01:26:09;;;;;;;;;;;537.90;2406.40;;;;;;5071409;28;19932;-63
2022/06/27 01:28:35;;;;;;;;;;;537.80;2406.40;;;;;;5070899;28;19908;-60
2022/06/27 01:31:00;;;;;;;;;;;537.80;2406.40;;;;;;5071440;28;19909;-59
2022/06/27 01:33:26;;;;;;;;;;;537.80;2406.40;;;;;;5071251;28;19905;-59
2022/06/27 01:36:41;;;;;;;;;;;537.70;2406.40;;;;;;5071087;28;19927;-60
2022/06/27 01:38:37;;;;;;;;;;;537.70;2406.40;;;;;;5071118;28;19936;-59
2022/06/27 01:41:03;;;;;;;;;;;537.60;2406.40;;;;;;5071020;28;19908;-60
2022/06/27 01:43:28;;;;;;;;;;;537.60;2406.40;;;;;;5071040;28;19908;-59
2022/06/27 01:45:54;;;;;;;;;;;512.90;2380.80;;;;;;5071066;28;19912;-59
2022/06/27 01:48:20;;;;;;;;;;;512.90;2380.80;;;;;;5071163;28;19911;-59
2022/06/27 01:50:46;;;;;;;;;;;512.90;2380.80;;;;;;5070399;28;19905;-59
2022/06/27 01:53:12;;;;;;;;;;;512.90;2380.80;;;;;;5070881;28;20324;-60
2022/06/27 01:55:38;;;;;;;;;;;512.90;2380.80;;;;;;5070762;28;19911;-59
2022/06/27 01:58:03;;;;;;;;;;;512.90;2380.80;;;;;;5070485;28;19974;-59
2022/06/27 02:00:29;;;;;;;;;;;512.90;2380.80;;;;;;5070548;28;20007;-59
2022/06/27 02:02:55;;;;;;;;;;;512.80;2380.80;;;;;;5070933;28;19908;-59
2022/06/27 02:05:20;;;;;;;;;;;512.80;2380.80;;;;;;5070947;28;20355;-59
2022/06/27 02:07:46;;;;;;;;;;;512.70;2380.80;;;;;;5070492;28;19904;-59
2022/06/27 02:10:12;;;;;;;;;;;512.70;2380.80;;;;;;5070452;28;19916;-60
2022/06/27 02:12:37;;;;;;;;;;;512.70;2380.80;;;;;;5070725;28;19904;-60
2022/06/27 02:15:03;;;;;;;;;;;512.70;2380.80;;;;;;5070387;28;19904;-64
2022/06/27 02:17:28;;;;;;;;;;;512.70;2380.80;;;;;;5070596;28;19916;-59
2022/06/27 02:19:55;;;;;;;;;;;512.60;2380.80;;;;;;5070579;28;20003;-59
2022/06/27 02:22:20;;;;;;;;;;;512.70;2380.80;;;;;;5070598;28;19905;-63
2022/06/27 02:24:46;;;;;;;;;;;512.70;2380.80;;;;;;5070406;28;20365;-58
2022/06/27 02:27:12;;;;;;;;;;;512.60;2380.80;;;;;;5070175;28;19923;-60
2022/06/27 02:29:38;;;;;;;;;;;512.60;2380.80;;;;;;5070585;28;19908;-59
2022/06/27 02:32:04;;;;;;;;;;;512.60;2380.80;;;;;;5070315;28;20416;-59
2022/06/27 02:34:29;;;;;;;;;;;512.60;2380.80;;;;;;5070817;28;19930;-59
2022/06/27 02:36:56;;;;;;;;;;;512.60;2380.80;;;;;;5070414;28;19904;-62
2022/06/27 02:39:23;;;;;;;;;;;512.60;2380.80;;;;;;5070241;28;19946;-62
2022/06/27 02:41:50;;;;;;;;;;;512.60;2380.80;;;;;;5070389;28;19911;-63
2022/06/27 02:44:16;;;;;;;;;;;512.60;2380.80;;;;;;5070162;28;19904;-59
2022/06/27 02:46:42;;;;;;;;;;;512.50;2380.80;;;;;;5070173;28;20282;-59
2022/06/27 02:49:08;;;;;;;;;;;512.60;2380.80;;;;;;5070276;28;19904;-59
2022/06/27 02:51:53;;;;;;;;;;;512.60;2380.80;;;;;;5070147;28;19961;-60
2022/06/27 02:54:20;;;;;;;;;;;512.60;2380.80;;;;;;5070135;28;19904;-59
2022/06/27 02:56:49;;;;;;;;;;;512.50;2380.80;;;;;;5069965;28;19911;-62
2022/06/27 02:59:35;;;;;;;;;;;512.40;2380.80;;;;;;5069692;28;19924;-59
2022/06/27 03:02:00;;;;;;;;;;;512.10;2380.80;;;;;;5070583;28;20031;-62
2022/06/27 03:04:26;;;;;;;;;;;487.30;2380.80;;;;;;5074239;28;20370;-59
2022/06/27 03:06:51;;;;;;;;;;;512.10;2380.80;;;;;;5074080;28;20259;-63
2022/06/27 03:09:17;;;;;;;;;;;512.10;2380.80;;;;;;5074065;28;19947;-64
2022/06/27 03:11:46;;;;;;;;;;;512.10;2380.80;;;;;;5073755;28;20351;-63
2022/06/27 03:14:11;;;;;;;;;;;512.30;2380.80;;;;;;5074236;28;19919;-62
2022/06/27 03:16:37;;;;;;;;;;;512.30;2380.80;;;;;;5073983;28;19904;-60
2022/06/27 03:19:03;;;;;;;;;;;512.40;2380.80;;;;;;5073837;28;19913;-60
2022/06/27 03:21:29;;;;;;;;;;;512.50;2380.80;;;;;;5073929;28;20311;-60
2022/06/27 03:23:54;;;;;;;;;;;512.70;2380.80;;;;;;5073618;28;19959;-63
2022/06/27 03:26:20;;;;;;;;;;;512.70;2380.80;;;;;;5073417;28;19935;-60
2022/06/27 03:28:46;;;;;;;;;;;512.70;2380.80;;;;;;5073397;28;20351;-60
2022/06/27 03:31:11;;;;;;;;;;;512.90;2380.80;;;;;;5073795;28;19956;-63
2022/06/27 03:33:37;;;;;;;;;;;512.90;2380.80;;;;;;5073599;28;19978;-62
2022/06/27 03:36:03;;;;;;;;;;;512.90;2380.80;;;;;;5073693;28;19905;-60
2022/06/27 03:38:29;;;;;;;;;;;537.60;2406.40;;;;;;5073534;28;20251;-60
2022/06/27 03:40:54;;;;;;;;;;;537.60;2406.40;;;;;;5073455;28;19978;-59
2022/06/27 03:43:20;;;;;;;;;;;512.90;2380.80;;;;;;5073333;28;20421;-62
2022/06/27 03:45:46;;;;;;;;;;;512.90;2380.80;;;;;;5073156;28;19904;-63
2022/06/27 03:49:59;;;;;;;;;;;512.90;2380.80;;;;;;5073596;28;20420;-63
2022/06/27 03:50:57;;;;;;;;;;;512.90;2380.80;;;;;;5073504;28;20525;-62
2022/06/27 03:53:23;;;;;;;;;;;512.90;2380.80;;;;;;5073235;28;20033;-60
2022/06/27 03:55:49;;;;;;;;;;;512.90;2380.80;;;;;;5073032;28;19904;-60
2022/06/27 03:58:14;;;;;;;;;;;512.90;2380.80;;;;;;5072762;28;20029;-60
2022/06/27 04:00:40;;;;;;;;;;;537.60;2406.40;;;;;;5073228;28;19924;-63
2022/06/27 04:03:06;;;;;;;;;;;537.90;2406.40;;;;;;5072901;28;20413;-59
2022/06/27 04:05:31;;;;;;;;;;;537.90;2406.40;;;;;;5073268;28;19904;-62
2022/06/27 04:07:57;;;;;;;;;;;538.00;2406.40;;;;;;5073226;28;19940;-60
2022/06/27 04:10:22;;;;;;;;;;;538.00;2406.40;;;;;;5072798;28;19935;-60
2022/06/27 04:12:48;;;;;;;;;;;538.10;2406.40;;;;;;5072824;28;19991;-63
2022/06/27 04:15:13;;;;;;;;;;;538.10;2406.40;;;;;;5072869;28;19915;-61
2022/06/27 04:17:39;;;;;;;;;;;538.30;2406.40;;;;;;5072866;28;19961;-63
2022/06/27 04:20:05;;;;;;;;;;;538.40;2406.40;;;;;;5072543;28;19915;-61
2022/06/27 04:22:31;;;;;;;;;;;538.40;2406.40;;;;;;5072620;28;19966;-60
2022/06/27 04:24:57;;;;;;;;;;;538.50;2406.40;;;;;;5072559;28;19944;-59
2022/06/27 04:27:23;;;;;;;;;;;563.30;2432.00;;;;;;5072456;28;20007;-59
2022/06/27 04:29:48;;;;;;;;;;;563.40;2432.00;;;;;;5072578;28;20580;-59
2022/06/27 04:32:18;;;;;;;;;;;563.60;2432.00;;;;;;5072490;28;19952;-60
2022/06/27 04:34:44;;;;;;;;;;;589.70;2432.00;;;;;;5072359;28;19942;-59
2022/06/27 04:37:09;;;;;;;;;;;717.40;2201.60;;;;;;5072525;28;19955;-62
2022/06/27 04:39:35;;;;;;;;;;;794.40;1817.60;;;;;;5072162;28;19915;-63
2022/06/27 04:42:01;;;;;;;;;;;845.70;1612.80;;;;;;5072296;28;19904;-61
2022/06/27 04:44:26;;;;;;;;;;;896.70;1459.20;;;;;;5072323;28;19908;-59
2022/06/27 04:46:52;;;;;;;;;;;922.50;1382.40;;;;;;5071993;28;19949;-61
2022/06/27 04:49:19;;;;;;;;;;;947.30;1356.80;;;;;;5072235;28;20355;-63
2022/06/27 04:51:44;;;;;;;;;;;948.10;1305.60;;;;;;5071811;28;20367;-60
2022/06/27 04:54:11;;;;;;;;;;;998.40;1305.60;;;;;;5072235;28;19904;-60
2022/06/27 04:56:39;;;;;;;;;;;999.00;1254.40;;;;;;5071685;28;19912;-59
2022/06/27 04:59:05;;;;;;;;;;;1024.10;1228.80;;;;;;5071181;28;20010;-58
2022/06/27 05:01:30;;;;;;;;;;;1024.90;1152.00;;;;;;5071066;28;19974;-59
2022/06/27 05:03:56;;;;;;;;;;;1050.10;1152.00;;;;;;5071001;28;19958;-59
2022/06/27 05:06:22;;;;;;;;;;;1049.90;1177.60;;;;;;5070733;28;19955;-60
2022/06/27 05:08:47;;;;;;;;;;;1050.30;1152.00;;;;;;5070911;28;19923;-59
2022/06/27 05:11:13;;;;;;;;;;;1050.20;1152.00;;;;;;5070575;28;19911;-59
2022/06/27 05:13:38;;;;;;;;;;;1050.50;1126.40;;;;;;5070734;28;19904;-65
2022/06/27 05:16:04;;;;;;;;;;;1050.50;1126.40;;;;;;5070721;28;19909;-59
2022/06/27 05:18:29;;;;;;;;;;;1075.90;1075.20;;;;;;5070788;28;20362;-60
2022/06/27 05:20:55;;;;;;;;;;;1100.90;1100.80;;;;;;5070656;28;20430;-61
2022/06/27 05:23:21;;;;;;;;;;;1101.40;1075.20;;;;;;5070718;28;19928;-64
2022/06/27 05:25:47;;;;;;;;;;;1126.50;1049.60;;;;;;5069684;28;19939;-60
2022/06/27 05:28:12;;;;;;;;;;;1127.00;1024.00;;;;;;5070285;28;19908;-64
2022/06/27 05:30:38;;;;;;;;;;;1152.10;1024.00;;;;;;5070532;28;20343;-60
2022/06/27 05:33:04;;;;;;;;;;;1152.20;998.40;;;;;;5070183;28;19911;-61
2022/06/27 05:35:30;;;;;;;;;;;1152.60;998.40;;;;;;5070641;28;19904;-61
2022/06/27 05:37:56;;;;;;;;;;;1178.00;972.80;;;;;;5070241;28;19912;-60
2022/06/27 05:40:22;;;;;;;;;;;1177.60;972.80;;;;;;5070491;28;19904;-63
2022/06/27 05:42:49;;;;;;;;;;;1177.70;972.80;;;;;;5070405;28;19912;-64
2022/06/27 05:45:15;;;;;;;;;;;1152.40;1024.00;;;;;;5070181;28;20022;-65
2022/06/27 05:47:42;;;;;;;;;;;1178.00;972.80;;;;;;5070415;28;19904;-65
2022/06/27 05:50:08;;;;;;;;;;;1178.10;972.80;;;;;;5070353;28;19908;-65
2022/06/27 05:52:34;;;;;;;;;;;1203.60;947.20;;;;;;5069984;28;19904;-60
2022/06/27 05:54:59;;;;;;;;;;;1203.60;972.80;;;;;;5070104;28;19995;-62
2022/06/27 05:57:25;;;;;;;;;;;1203.40;972.80;;;;;;5069948;28;20015;-68
2022/06/27 05:59:55;;;;;;;;;;;1203.40;972.80;;;;;;5028657;28;1194453;-67
2022/06/27 06:02:21;;;;;;;;;;;1203.90;947.20;;;;;;5070823;28;20323;-62
2022/06/27 06:04:48;;;;;;;;;;;1203.90;947.20;;;;;;5070633;28;20333;-61
2022/06/27 06:07:14;;;;;;;;;;;1228.90;972.80;;;;;;5070698;28;19908;-61
2022/06/27 06:09:40;;;;;;;;;;;1229.00;947.20;;;;;;5070792;28;19904;-62
2022/06/27 06:12:09;;;;;;;;;;;1255.00;896.00;;;;;;5070371;28;19904;-61
2022/06/27 06:14:35;;;;;;;;;;;1254.60;921.60;;;;;;5070400;28;19909;-61
2022/06/27 06:17:01;;;;;;;;;;;1254.60;947.20;;;;;;5070878;28;19905;-61
2022/06/27 06:19:28;;;;;;;;;;;1254.90;896.00;;;;;;5070482;28;19912;-60
2022/06/27 06:21:53;;;;;;;;;;;1254.90;896.00;;;;;;5070635;28;19905;-63
2022/06/27 06:24:19;;;;;;;;;;;1255.00;896.00;;;;;;5070577;28;19905;-61
2022/06/27 06:26:45;;;;;;;;;;;1254.90;870.40;;;;;;5070285;28;20007;-61
2022/06/27 06:29:18;;;;;;;;;;;1254.60;896.00;;;;;;5070365;28;19912;-61
2022/06/27 06:31:44;;;;;;;;;;;1255.10;870.40;;;;;;5070414;28;19916;-62
2022/06/27 06:34:11;;;;;;;;;;;1203.90;896.00;;;;;;5070734;28;20295;-62
2022/06/27 06:36:38;;;;;;;;;;;1203.20;921.60;;;;;;5069580;28;20011;-64
2022/06/27 06:39:04;;;;;;;;;;;1203.40;921.60;;;;;;5069619;28;19960;-63
2022/06/27 06:41:30;;;;;;;;;;;1178.50;921.60;;;;;;5069459;28;19908;-62
2022/06/27 06:43:56;;;;;;;;;;;1152.70;947.20;;;;;;5069961;28;19987;-63
2022/06/27 06:46:22;;;;;;;;;;;1228.90;921.60;;;;;;5070295;28;20327;-62
2022/06/27 06:48:47;;;;;;;;;;;1254.80;896.00;;;;;;5070681;28;19961;-65
2022/06/27 06:51:16;;;;;;;;;;;1255.00;870.40;;;;;;5070305;28;20401;-60
2022/06/27 06:53:41;;;;;;;;;;;1255.10;844.80;;;;;;5070532;28;19904;-62
2022/06/27 06:56:07;;;;;;;;;;;1280.20;844.80;;;;;;5070369;28;20045;-61
2022/06/27 06:58:34;;;;;;;;;;;1280.90;819.20;;;;;;5069671;28;19916;-60
2022/06/27 07:01:01;;;;;;;;;;;1306.00;793.60;;;;;;5070134;28;19912;-60
2022/06/27 07:03:27;;;;;;;;;;;1280.00;819.20;;;;;;5070409;28;20003;-60
2022/06/27 07:05:54;;;;;;;;;;;1254.80;870.40;;;;;;5070252;28;19947;-60
2022/06/27 07:08:20;;;;;;;;;;;1228.90;870.40;;;;;;5070361;28;19904;-60
2022/06/27 07:10:46;;;;;;;;;;;1228.90;870.40;;;;;;5069997;28;19927;-60
2022/06/27 07:13:12;;;;;;;;;;;1255.00;844.80;;;;;;5070219;28;19995;-61
2022/06/27 07:15:38;;;;;;;;;;;1255.30;844.80;;;;;;5070294;28;19905;-63
2022/06/27 07:18:04;;;;;;;;;;;1203.70;870.40;;;;;;5069423;28;20355;-60
2022/06/27 07:20:30;;;;;;;;;;;1254.80;870.40;;;;;;5070097;28;20416;-60
2022/06/27 07:22:56;;;;;;;;;;;1254.80;844.80;;;;;;5070021;28;19908;-61
2022/06/27 07:25:22;;;;;;;;;;;1228.80;870.40;;;;;;5069979;28;19947;-62
2022/06/27 07:27:48;;;;;;;;;;;1254.90;844.80;;;;;;5069806;28;19999;-60
2022/06/27 07:30:14;;;;;;;;;;;1229.20;870.40;;;;;;5069664;28;20015;-61
2022/06/27 07:32:41;;;;;;;;;;;1254.40;870.40;;;;;;5070153;28;20322;-65
2022/06/27 07:35:09;;;;;;;;;;;1305.60;768.00;;;;;;5069878;28;20219;-61
2022/06/27 07:37:36;;;;;;;;;;;1331.20;768.00;;;;;;5069579;28;19977;-62
2022/06/27 07:40:03;;;;;;;;;;;1254.80;819.20;;;;;;5069703;28;19904;-60
2022/06/27 07:42:29;;;;;;;;;;;1254.60;844.80;;;;;;5069890;28;20379;-60
2022/06/27 07:44:55;;;;;;;;;;;1254.60;844.80;;;;;;5069972;28;19912;-61
2022/06/27 07:47:20;;;;;;;;;;;1229.40;870.40;;;;;;5069990;28;19999;-60
2022/06/27 07:49:46;;;;;;;;;;;1255.00;844.80;;;;;;5072621;28;19913;-60
2022/06/27 07:52:12;;;;;;;;;;;1305.70;793.60;;;;;;5073502;28;20367;-61
2022/06/27 07:54:38;;;;;;;;;;;1280.70;768.00;;;;;;5073335;28;19904;-60
2022/06/27 07:57:03;;;;;;;;;;;1255.30;793.60;;;;;;5072829;28;19950;-60
2022/06/27 07:59:29;;;;;;;;;;;1229.00;819.20;;;;;;5072844;28;19943;-61
2022/06/27 08:01:55;;;;;;;;;;;1228.90;870.40;;;;;;5072995;28;19911;-62
2022/06/27 08:04:21;;;;;;;;;;;1178.00;870.40;;;;;;5073385;28;19904;-60
2022/06/27 08:06:49;;;;;;;;;;;1254.40;844.80;;;;;;5072915;28;19904;-60
2022/06/27 08:09:15;;;;;;;;;;;1280.40;819.20;;;;;;5072941;28;19908;-62
2022/06/27 08:11:42;;;;;;;;;;;1280.40;793.60;;;;;;5072870;28;20259;-63
2022/06/27 08:14:12;;;;;;;;;;;1178.00;844.80;;;;;;5072869;28;19904;-65
2022/06/27 08:16:41;;;;;;;;;;;1177.60;844.80;;;;;;5070837;28;19951;-64
2022/06/27 08:19:08;;;;;;;;;;;1075.50;947.20;;;;;;5071101;28;19917;-66
2022/06/27 08:21:35;;;;;;;;;;;1024.40;972.80;;;;;;5071143;28;19905;-61
2022/06/27 08:24:03;;;;;;;;;;;999.10;1024.00;;;;;;5071235;28;19905;-63
2022/06/27 08:26:30;;;;;;;;;;;973.10;1100.80;;;;;;5071151;28;19908;-64
2022/06/27 08:28:57;;;;;;;;;;;947.90;1075.20;;;;;;5070376;28;20286;-60
2022/06/27 08:31:22;;;;;;;;;;;947.90;1100.80;;;;;;5071229;28;19989;-66
2022/06/27 08:33:50;;;;;;;;;;;947.40;1126.40;;;;;;5070956;28;20343;-61
2022/06/27 08:36:17;;;;;;;;;;;896.90;1152.00;;;;;;5070705;28;20390;-62
2022/06/27 08:38:48;;;;;;;;;;;871.30;1203.20;;;;;;5070909;28;20495;-66
2022/06/27 08:41:14;;;;;;;;;;;896.20;1177.60;;;;;;5052519;28;19904;-67
2022/06/27 08:43:40;;;;;;;;;;;896.70;1177.60;;;;;;5070150;28;19904;-65
2022/06/27 08:46:06;;;;;;;;;;;896.30;1203.20;;;;;;5070722;28;19911;-65
2022/06/27 08:48:34;;;;;;;;;;;896.50;1203.20;;;;;;5070801;28;19911;-66
2022/06/27 08:51:02;;;;;;;;;;;871.10;1203.20;;;;;;5071013;28;19908;-64
2022/06/27 08:53:28;;;;;;;;;;;870.90;1228.80;;;;;;5070451;28;19950;-67
2022/06/27 08:55:54;;;;;;;;;;;871.20;1228.80;;;;;;5069693;28;19904;-64
2022/06/27 08:58:23;;;;;;;;;;;871.20;1203.20;;;;;;5070059;28;19923;-66
2022/06/27 09:00:48;;;;;;;;;;;870.50;1254.40;;;;;;5069697;28;19970;-60
2022/06/27 09:03:21;;;;;;;;;;;870.90;1254.40;;;;;;5070296;28;20310;-67
2022/06/27 09:05:57;;;;;;;;;;;870.60;1280.00;;;;;;5070047;28;19908;-64
2022/06/27 09:08:27;;;;;;;;;;;870.80;1254.40;;;;;;5069952;28;19998;-62
2022/06/27 09:10:53;;;;;;;;;;;870.90;1254.40;;;;;;5069821;28;20270;-61
2022/06/27 09:13:19;;;;;;;;;;;870.70;1254.40;;;;;;5070051;28;19908;-68
2022/06/27 09:15:56;;;;;;;;;;;871.30;1254.40;;;;;;5069820;28;19916;-65
2022/06/27 09:18:23;;;;;;;;;;;870.80;1254.40;;;;;;5070081;28;19924;-62
2022/06/27 09:20:59;;;;;;;;;;;870.90;1254.40;;;;;;5069998;28;20266;-63
2022/06/27 09:23:31;;;;;;;;;;;871.10;1228.80;;;;;;5069537;28;19908;-63
2022/06/27 09:26:01;;;;;;;;;;;870.40;1254.40;;;;;;5069702;28;19999;-65
2022/06/27 09:28:40;;;;;;;;;;;870.50;1305.60;;;;;;5069647;28;19983;-65
2022/06/27 09:31:10;;;;;;;;;;;845.60;1305.60;;;;;;5069678;28;20343;-64
2022/06/27 09:33:38;;;;;;;;;;;845.70;1254.40;;;;;;5070630;28;19904;-63
2022/06/27 09:36:11;;;;;;;;;;;845.70;1280.00;;;;;;5071739;28;19936;-64
2022/06/27 09:38:40;;;;;;;;;;;845.40;1280.00;;;;;;5071220;28;20003;-66
2022/06/27 09:41:08;;;;;;;;;;;845.40;1280.00;;;;;;5071052;28;19904;-66
2022/06/27 09:43:35;;;;;;;;;;;845.50;1254.40;;;;;;5071074;28;19904;-67
2022/06/27 09:46:02;;;;;;;;;;;845.30;1280.00;;;;;;5071150;28;19910;-67
2022/06/27 09:48:28;;;;;;;;;;;845.40;1280.00;;;;;;5071218;28;20305;-64
2022/06/27 09:50:54;;;;;;;;;;;845.70;1305.60;;;;;;5071214;28;19949;-63
2022/06/27 09:53:26;;;;;;;;;;;845.20;1331.20;;;;;;5071266;28;19949;-66
2022/06/27 09:55:52;;;;;;;;;;;845.60;1305.60;;;;;;5070915;28;19904;-67
2022/06/27 09:58:18;;;;;;;;;;;845.60;1305.60;;;;;;5070302;28;19946;-66
2022/06/27 10:00:44;;;;;;;;;;;845.70;1331.20;;;;;;5070683;28;19961;-63
2022/06/27 10:03:10;;;;;;;;;;;845.40;1305.60;;;;;;5070904;28;19904;-64
2022/06/27 10:05:37;;;;;;;;;;;845.40;1305.60;;;;;;5070608;28;19912;-66
2022/06/27 10:08:05;;;;;;;;;;;845.30;1356.80;;;;;;5070669;28;19905;-65
2022/06/27 10:10:31;;;;;;;;;;;845.00;1331.20;;;;;;5070927;28;19904;-66
2022/06/27 10:12:58;;;;;;;;;;;845.00;1356.80;;;;;;5070475;28;19911;-66
2022/06/27 10:15:27;;;;;;;;;;;820.10;1305.60;;;;;;5070542;28;19950;-63
2022/06/27 10:17:54;;;;;;;;;;;819.80;1305.60;;;;;;5070399;28;19970;-67
2022/06/27 10:20:20;;;;;;;;;;;820.00;1305.60;;;;;;5070473;28;19998;-67
2022/06/27 10:23:04;;;;;;;;;;;819.80;1305.60;;;;;;5070367;28;19947;-66
2022/06/27 10:25:29;;;;;;;;;;;819.60;1331.20;;;;;;5070431;28;19904;-67
2022/06/27 10:28:07;;;;;;;;;;;819.80;1280.00;;;;;;5070254;28;19966;-66
2022/06/27 10:30:42;;;;;;;;;;;819.90;1331.20;;;;;;5070478;28;20338;-66
2022/06/27 10:33:31;;;;;;;;;;;844.80;1331.20;;;;;;5070794;28;20000;-67
2022/06/27 10:36:02;;;;;;;;;;;845.10;1331.20;;;;;;5057013;28;19904;-66
2022/06/27 10:38:28;;;;;;;;;;;845.00;1280.00;;;;;;5070644;28;19916;-67
2022/06/27 10:40:54;;;;;;;;;;;845.00;1331.20;;;;;;5070389;28;20415;-64
2022/06/27 10:43:38;;;;;;;;;;;844.90;1356.80;;;;;;5070462;28;19905;-66
2022/06/27 10:46:10;;;;;;;;;;;820.10;1356.80;;;;;;5070263;28;20374;-66
2022/06/27 10:48:36;;;;;;;;;;;844.80;1382.40;;;;;;5070452;28;19905;-64
2022/06/27 10:51:30;;;;;;;;;;;819.90;1331.20;;;;;;5070459;28;19904;-67
2022/06/27 10:53:58;;;;;;;;;;;819.90;1331.20;;;;;;5070219;28;19958;-63
2022/06/27 10:56:30;;;;;;;;;;;820.10;1382.40;;;;;;5070051;28;20006;-67
2022/06/27 10:59:03;;;;;;;;;;;819.80;1356.80;;;;;;5069859;28;19916;-67
2022/06/27 11:01:29;;;;;;;;;;;820.10;1331.20;;;;;;5070332;28;20312;-66
2022/06/27 11:03:55;;;;;;;;;;;844.80;1356.80;;;;;;5070130;28;20006;-65
2022/06/27 11:06:21;;;;;;;;;;;844.80;1356.80;;;;;;5070025;28;19951;-67
2022/06/27 11:08:47;;;;;;;;;;;844.90;1356.80;;;;;;5070178;28;19995;-67
2022/06/27 11:11:20;;;;;;;;;;;820.10;1305.60;;;;;;5070233;28;20385;-64
2022/06/27 11:13:50;;;;;;;;;;;819.90;1331.20;;;;;;5069872;28;19904;-67
2022/06/27 11:16:17;;;;;;;;;;;819.80;1280.00;;;;;;5069888;28;19914;-65
2022/06/27 11:18:47;;;;;;;;;;;819.70;1305.60;;;;;;5070052;28;19920;-67
2022/06/27 11:21:14;;;;;;;;;;;819.80;1331.20;;;;;;5070054;28;19908;-67
2022/06/27 11:23:52;;;;;;;;;;;819.90;1331.20;;;;;;5071526;28;19908;-67
2022/06/27 11:26:20;;;;;;;;;;;819.80;1331.20;;;;;;5073627;28;19904;-63
2022/06/27 11:31:59;;;;;;;;;;;819.80;1331.20;;;;;;5031677;28;19967;-67
2022/06/27 11:34:25;;;;;;;;;;;819.80;1331.20;;;;;;5031773;28;20272;-67
2022/06/27 11:36:52;;;;;;;;;;;820.10;1433.60;;;;;;5031768;28;20003;-67
2022/06/27 11:39:24;;;;;;;;;;;844.80;1356.80;;;;;;5031521;28;19925;-67
2022/06/27 11:41:54;;;;;;;;;;;820.10;1280.00;;;;;;5031706;28;20437;-68
2022/06/27 11:44:20;;;;;;;;;;;819.60;1305.60;;;;;;5031443;28;19905;-67
2022/06/27 11:46:46;;;;;;;;;;;819.60;1331.20;;;;;;5031233;28;19912;-67
2022/06/27 11:49:11;;;;;;;;;;;819.70;1305.60;;;;;;5031425;28;19909;-66
2022/06/27 11:51:38;;;;;;;;;;;819.70;1305.60;;;;;;5031281;28;20007;-62
2022/06/27 11:54:06;;;;;;;;;;;819.70;1331.20;;;;;;5031122;28;19919;-67
2022/06/27 11:56:34;;;;;;;;;;;819.80;1331.20;;;;;;5031378;28;19905;-67
2022/06/27 11:59:00;;;;;;;;;;;844.80;1356.80;;;;;;5030838;28;20398;-62
2022/06/27 12:01:25;;;;;;;;;;;844.80;1356.80;;;;;;5031034;28;19909;-66
2022/06/27 12:04:10;;;;;;;;;;;844.80;1280.00;;;;;;5031091;28;19905;-62
2022/06/27 12:06:45;;;;;;;;;;;820.10;1305.60;;;;;;5030890;28;19935;-63
2022/06/27 12:09:11;;;;;;;;;;;819.80;1305.60;;;;;;5071552;28;19905;-67
2022/06/27 12:11:46;;;;;;;;;;;819.90;1331.20;;;;;;5073019;28;19912;-63
2022/06/27 12:14:12;;;;;;;;;;;819.70;1305.60;;;;;;5072869;28;20010;-67
2022/06/27 12:16:48;;;;;;;;;;;819.60;1280.00;;;;;;5072984;28;20042;-62
2022/06/27 12:19:14;;;;;;;;;;;819.80;1280.00;;;;;;5072817;28;19912;-62
2022/06/27 12:21:40;;;;;;;;;;;820.10;1331.20;;;;;;5072861;28;19904;-67
2022/06/27 12:24:06;;;;;;;;;;;820.10;1305.60;;;;;;5072445;28;20377;-63
2022/06/27 12:26:31;;;;;;;;;;;820.10;1254.40;;;;;;5072783;28;20422;-67
2022/06/27 12:28:57;;;;;;;;;;;820.10;1280.00;;;;;;5072737;28;19915;-67
2022/06/27 12:31:23;;;;;;;;;;;844.80;1408.00;;;;;;5072685;28;19908;-67
2022/06/27 12:33:48;;;;;;;;;;;845.00;1408.00;;;;;;5072473;28;19915;-63
2022/06/27 12:36:15;;;;;;;;;;;845.00;1331.20;;;;;;5072527;28;19904;-67
2022/06/27 12:38:40;;;;;;;;;;;845.10;1331.20;;;;;;5072547;28;19965;-67
2022/06/27 12:41:12;;;;;;;;;;;845.10;1356.80;;;;;;5072252;28;19908;-67
2022/06/27 12:43:42;;;;;;;;;;;844.90;1305.60;;;;;;5072289;28;20342;-67
2022/06/27 12:46:07;;;;;;;;;;;844.90;1356.80;;;;;;5072499;28;19926;-66
2022/06/27 12:48:33;;;;;;;;;;;819.80;1280.00;;;;;;5072201;28;20418;-67
2022/06/27 12:50:59;;;;;;;;;;;820.10;1280.00;;;;;;5072620;28;19908;-61
2022/06/27 12:53:26;;;;;;;;;;;819.90;1305.60;;;;;;5072149;28;19909;-66
2022/06/27 12:55:52;;;;;;;;;;;820.10;1280.00;;;;;;5071881;28;19904;-67
2022/06/27 12:58:18;;;;;;;;;;;819.80;1280.00;;;;;;5071782;28;19938;-66
2022/06/27 13:00:43;;;;;;;;;;;819.90;1305.60;;;;;;5071919;28;19923;-64
2022/06/27 13:03:09;;;;;;;;;;;819.80;1280.00;;;;;;5072072;28;19905;-67
2022/06/27 13:05:35;;;;;;;;;;;819.80;1280.00;;;;;;5071851;28;20472;-63
2022/06/27 13:08:01;;;;;;;;;;;820.10;1305.60;;;;;;5071999;28;19926;-66
2022/06/27 13:10:26;;;;;;;;;;;820.10;1305.60;;;;;;5071806;28;20464;-66
2022/06/27 13:12:52;;;;;;;;;;;845.00;1331.20;;;;;;5071993;28;19947;-66
2022/06/27 13:15:19;;;;;;;;;;;845.10;1331.20;;;;;;5071917;28;19909;-62
2022/06/27 13:17:45;;;;;;;;;;;820.10;1280.00;;;;;;5070492;28;19920;-63
2022/06/27 13:20:12;;;;;;;;;;;820.00;1280.00;;;;;;5070742;28;19905;-63
2022/06/27 13:22:37;;;;;;;;;;;820.10;1305.60;;;;;;5071711;28;19905;-64
2022/06/27 13:25:03;;;;;;;;;;;844.80;1305.60;;;;;;5071308;28;19927;-62
2022/06/27 13:27:29;;;;;;;;;;;820.10;1280.00;;;;;;5071498;28;20385;-65
2022/06/27 13:29:54;;;;;;;;;;;844.90;1331.20;;;;;;5071470;28;19913;-63
2022/06/27 13:32:20;;;;;;;;;;;820.10;1280.00;;;;;;5071590;28;19905;-63
2022/06/27 13:34:46;;;;;;;;;;;844.80;1331.20;;;;;;5071119;28;19961;-63
2022/06/27 13:37:12;;;;;;;;;;;820.10;1305.60;;;;;;5071323;28;19989;-63
2022/06/27 13:39:38;;;;;;;;;;;820.00;1280.00;;;;;;5068456;28;20393;-62
2022/06/27 13:42:04;;;;;;;;;;;820.00;1305.60;;;;;;5066795;28;20343;-63